Time;durP1;ratioP1;P1;durP2;ratioP2;P2;SDS_P1;SDS_P2;PMS_P1;PMS_P2;Temp;Humidity;BMP_temperature;BMP_pressure;BME280_temperature;BME280_humidity;BME280_pressure;Samples;Min_cycle;Max_cycle;Signal;HPM_P1;HPM_P2
2023/09/20 00:02:19;;;;;;;12.43;4.55;;;;;;;;;;5032665;28;20025;-56
2023/09/20 00:04:47;;;;;;;7.63;4.10;;;;;;;;;;5032326;28;20383;-55
2023/09/20 00:07:14;;;;;;;8.80;4.65;;;;;;;;;;5032163;28;20025;-55
2023/09/20 00:09:40;;;;;;;7.85;4.38;;;;;;;;;;5014565;28;20099;-57
2023/09/20 00:12:06;;;;;;;9.98;4.38;;;;;;;;;;5032265;28;20033;-57
2023/09/20 00:14:32;;;;;;;7.60;4.45;;;;;;;;;;5032046;28;20083;-58
2023/09/20 00:17:00;;;;;;;7.80;4.28;;;;;;;;;;5032403;28;20033;-58
2023/09/20 00:19:26;;;;;;;7.35;4.45;;;;;;;;;;5031688;28;20063;-57
2023/09/20 00:21:52;;;;;;;9.80;4.47;;;;;;;;;;5032276;28;20420;-57
2023/09/20 00:24:18;;;;;;;8.30;4.15;;;;;;;;;;5032230;28;20030;-57
2023/09/20 00:26:44;;;;;;;7.32;3.92;;;;;;;;;;5014331;28;20014;-57
2023/09/20 00:29:10;;;;;;;9.45;4.47;;;;;;;;;;5014192;28;20048;-58
2023/09/20 00:31:38;;;;;;;7.55;4.70;;;;;;;;;;5032018;28;20013;-57
2023/09/20 00:34:04;;;;;;;9.10;4.20;;;;;;;;;;5031982;28;20430;-56
2023/09/20 00:36:33;;;;;;;4.95;4.30;;;;;;;;;;5031693;28;20421;-56
2023/09/20 00:39:00;;;;;;;8.82;5.07;;;;;;;;;;5031888;28;20271;-58
2023/09/20 00:44:30;;;;;;;11.57;5.10;;;;;;;;;;5025809;28;20106;-58
2023/09/20 00:46:56;;;;;;;9.15;4.47;;;;;;;;;;5031713;28;20552;-57
2023/09/20 00:49:22;;;;;;;8.38;5.55;;;;;;;;;;5031639;28;20029;-58
2023/09/20 00:51:49;;;;;;;6.13;4.22;;;;;;;;;;5031683;28;20026;-60
2023/09/20 00:54:15;;;;;;;8.98;4.60;;;;;;;;;;5030919;28;20549;-58
2023/09/20 00:56:42;;;;;;;7.13;4.93;;;;;;;;;;5031470;28;20025;-58
2023/09/20 01:02:14;;;;;;;8.52;4.53;;;;;;;;;;5032552;28;20032;-58
2023/09/20 01:04:40;;;;;;;6.80;4.28;;;;;;;;;;5035426;28;20110;-58
2023/09/20 01:07:06;;;;;;;5.55;4.18;;;;;;;;;;5034716;28;20471;-57
2023/09/20 01:09:32;;;;;;;11.65;5.03;;;;;;;;;;5034808;28;20032;-56
2023/09/20 01:11:58;;;;;;;7.72;4.10;;;;;;;;;;5034030;28;20037;-57
2023/09/20 01:14:27;;;;;;;8.15;4.57;;;;;;;;;;5032683;28;20167;-56
2023/09/20 01:16:54;;;;;;;6.43;3.95;;;;;;;;;;5033988;28;20472;-57
2023/09/20 01:19:20;;;;;;;8.52;5.20;;;;;;;;;;5016143;28;20103;-56
2023/09/20 01:21:47;;;;;;;7.15;4.00;;;;;;;;;;5035055;28;20048;-57
2023/09/20 01:24:17;;;;;;;6.28;4.40;;;;;;;;;;5034538;28;20088;-58
2023/09/20 01:26:44;;;;;;;6.60;3.90;;;;;;;;;;5035103;28;20018;-58
2023/09/20 01:29:12;;;;;;;7.57;4.00;;;;;;;;;;5034590;28;20064;-57
2023/09/20 01:31:38;;;;;;;8.07;4.55;;;;;;;;;;5034587;28;20052;-57
2023/09/20 01:34:04;;;;;;;8.48;4.22;;;;;;;;;;5033685;28;20026;-58
2023/09/20 01:36:30;;;;;;;9.38;4.47;;;;;;;;;;5031880;28;20471;-57
2023/09/20 01:38:56;;;;;;;5.72;4.07;;;;;;;;;;5031457;28;20079;-57
2023/09/20 01:41:22;;;;;;;5.78;3.78;;;;;;;;;;5034398;28;20044;-56
2023/09/20 01:43:48;;;;;;;8.63;3.92;;;;;;;;;;5012018;28;20017;-57
2023/09/20 01:46:15;;;;;;;6.97;3.85;;;;;;;;;;5030036;28;20093;-58
2023/09/20 01:48:42;;;;;;;7.82;3.47;;;;;;;;;;5034065;28;20013;-57
2023/09/20 01:51:08;;;;;;;6.95;3.65;;;;;;;;;;5034440;28;20162;-56
2023/09/20 01:53:34;;;;;;;8.52;3.88;;;;;;;;;;5033645;28;20074;-56
2023/09/20 01:56:00;;;;;;;6.00;3.80;;;;;;;;;;5033712;28;20075;-57
2023/09/20 01:58:26;;;;;;;5.68;3.10;;;;;;;;;;5034088;28;20025;-55
2023/09/20 02:00:52;;;;;;;6.60;3.33;;;;;;;;;;5033958;28;20029;-56
2023/09/20 02:03:18;;;;;;;9.05;3.58;;;;;;;;;;5016894;28;20021;-56
2023/09/20 02:05:47;;;;;;;6.28;3.30;;;;;;;;;;5033818;28;20064;-55
2023/09/20 02:08:13;;;;;;;6.18;3.10;;;;;;;;;;5015718;28;20470;-56
2023/09/20 02:10:40;;;;;;;6.55;3.03;;;;;;;;;;5033743;28;20013;-57
2023/09/20 02:13:06;;;;;;;6.20;3.15;;;;;;;;;;5033612;28;20041;-56
2023/09/20 02:15:36;;;;;;;6.00;2.78;;;;;;;;;;5033633;28;20103;-56
2023/09/20 02:18:05;;;;;;;5.45;2.75;;;;;;;;;;5032816;28;20097;-56
2023/09/20 02:20:36;;;;;;;5.07;2.70;;;;;;;;;;5031824;28;20045;-57
2023/09/20 02:23:03;;;;;;;6.40;2.90;;;;;;;;;;5030552;28;20167;-62
2023/09/20 02:25:29;;;;;;;5.75;3.05;;;;;;;;;;5031986;28;20117;-56
2023/09/20 02:27:57;;;;;;;6.32;2.72;;;;;;;;;;5033458;28;20476;-58
2023/09/20 02:30:35;;;;;;;5.07;2.70;;;;;;;;;;5033806;28;20031;-57
2023/09/20 02:33:05;;;;;;;3.30;2.60;;;;;;;;;;5033282;28;20017;-58
2023/09/20 02:35:31;;;;;;;11.02;3.30;;;;;;;;;;5033388;28;20044;-57
2023/09/20 02:37:58;;;;;;;5.65;2.95;;;;;;;;;;5033353;28;20471;-57
2023/09/20 02:40:24;;;;;;;5.95;2.38;;;;;;;;;;5033440;28;20128;-56
2023/09/20 02:42:54;;;;;;;6.85;2.97;;;;;;;;;;5033269;28;20120;-57
2023/09/20 02:45:21;;;;;;;4.43;2.50;;;;;;;;;;5033072;28;20083;-58
2023/09/20 02:47:47;;;;;;;5.88;3.05;;;;;;;;;;5033177;28;20092;-57
2023/09/20 02:50:16;;;;;;;5.28;2.50;;;;;;;;;;5033132;28;20036;-58
2023/09/20 02:52:43;;;;;;;5.15;2.33;;;;;;;;;;5032829;28;20478;-57
2023/09/20 02:55:12;;;;;;;7.10;2.63;;;;;;;;;;5033164;28;20104;-56
2023/09/20 02:57:38;;;;;;;4.03;2.03;;;;;;;;;;5032935;28;20017;-55
2023/09/20 03:00:06;;;;;;;7.22;2.63;;;;;;;;;;5032894;28;20037;-58
2023/09/20 03:02:34;;;;;;;7.22;3.22;;;;;;;;;;5032720;28;20360;-57
2023/09/20 03:05:00;;;;;;;9.13;2.60;;;;;;;;;;5033037;28;20562;-55
2023/09/20 03:07:26;;;;;;;7.47;3.20;;;;;;;;;;5032726;28;20525;-57
2023/09/20 03:09:52;;;;;;;6.00;2.75;;;;;;;;;;5015199;28;20029;-57
2023/09/20 03:12:18;;;;;;;7.70;3.00;;;;;;;;;;5015109;28;20108;-57
2023/09/20 03:14:45;;;;;;;8.05;2.85;;;;;;;;;;5032604;28;20460;-58
2023/09/20 03:17:12;;;;;;;3.55;2.38;;;;;;;;;;5033381;28;20324;-57
2023/09/20 03:19:38;;;;;;;3.58;2.35;;;;;;;;;;5032812;28;20098;-58
2023/09/20 03:22:06;;;;;;;4.97;2.20;;;;;;;;;;5033279;28;20039;-58
2023/09/20 03:24:35;;;;;;;3.63;2.47;;;;;;;;;;5032390;28;20455;-58
2023/09/20 03:27:01;;;;;;;4.82;2.60;;;;;;;;;;4999453;28;20072;-58
2023/09/20 03:29:27;;;;;;;4.95;2.58;;;;;;;;;;5033090;28;20061;-57
2023/09/20 03:31:53;;;;;;;7.53;2.65;;;;;;;;;;5033012;28;20479;-57
2023/09/20 03:34:21;;;;;;;6.15;3.05;;;;;;;;;;5032888;28;20036;-58
2023/09/20 03:36:47;;;;;;;6.47;2.80;;;;;;;;;;5032915;28;20018;-57
2023/09/20 03:39:14;;;;;;;6.68;3.17;;;;;;;;;;5032706;28;20488;-57
2023/09/20 03:41:40;;;;;;;6.60;3.50;;;;;;;;;;5032837;28;20171;-57
2023/09/20 03:44:06;;;;;;;6.20;3.03;;;;;;;;;;5001360;28;20486;-58
2023/09/20 03:46:32;;;;;;;4.95;3.28;;;;;;;;;;5032489;28;20057;-57
2023/09/20 03:48:59;;;;;;;6.60;3.78;;;;;;;;;;5032692;28;20018;-57
2023/09/20 03:51:25;;;;;;;8.00;3.80;;;;;;;;;;5032726;28;20029;-56
2023/09/20 03:53:51;;;;;;;13.15;3.88;;;;;;;;;;5014720;28;20028;-57
2023/09/20 03:56:17;;;;;;;8.30;4.70;;;;;;;;;;5032596;28;20033;-56
2023/09/20 03:58:43;;;;;;;6.28;4.45;;;;;;;;;;5032369;28;20025;-57
2023/09/20 04:01:10;;;;;;;9.57;5.13;;;;;;;;;;5032692;28;20032;-55
2023/09/20 04:03:36;;;;;;;8.27;4.78;;;;;;;;;;5014654;28;20026;-57
2023/09/20 04:06:02;;;;;;;11.20;5.75;;;;;;;;;;5032558;28;20033;-57
2023/09/20 04:08:28;;;;;;;9.32;5.32;;;;;;;;;;5032518;28;20057;-57
2023/09/20 04:10:56;;;;;;;11.38;5.03;;;;;;;;;;5014456;28;20030;-55
2023/09/20 04:13:22;;;;;;;12.27;6.75;;;;;;;;;;5032316;28;20378;-56
2023/09/20 04:15:49;;;;;;;12.80;6.78;;;;;;;;;;5014355;28;20021;-58
2023/09/20 04:18:15;;;;;;;9.98;6.60;;;;;;;;;;5014324;28;20021;-57
2023/09/20 04:20:42;;;;;;;11.35;5.88;;;;;;;;;;5031980;28;20054;-58
2023/09/20 04:23:09;;;;;;;10.25;5.80;;;;;;;;;;5032084;28;20032;-57
2023/09/20 04:25:35;;;;;;;11.45;7.13;;;;;;;;;;5032091;28;20439;-57
2023/09/20 04:28:01;;;;;;;14.23;7.38;;;;;;;;;;5032258;28;20117;-58
2023/09/20 04:30:29;;;;;;;11.32;6.75;;;;;;;;;;5032114;28;20036;-58
2023/09/20 04:39:11;;;;;;;11.75;6.72;;;;;;;;;;5027021;28;20088;-58
2023/09/20 04:41:37;;;;;;;11.68;6.32;;;;;;;;;;5014790;28;20052;-62
2023/09/20 04:44:04;;;;;;;13.27;6.93;;;;;;;;;;5014121;28;20483;-58
2023/09/20 04:46:30;;;;;;;11.77;6.57;;;;;;;;;;5031729;28;20421;-57
2023/09/20 04:48:56;;;;;;;11.50;6.47;;;;;;;;;;5013937;28;20364;-57
2023/09/20 04:51:22;;;;;;;15.57;6.78;;;;;;;;;;5031793;28;20053;-56
2023/09/20 04:53:49;;;;;;;10.43;6.75;;;;;;;;;;5028291;28;20033;-57
2023/09/20 04:56:16;;;;;;;12.05;6.70;;;;;;;;;;5030707;28;20029;-57
2023/09/20 04:58:42;;;;;;;12.07;6.32;;;;;;;;;;5030927;28;20010;-57
2023/09/20 05:01:14;;;;;;;9.80;6.10;;;;;;;;;;5031885;28;20108;-57
2023/09/20 05:03:40;;;;;;;11.20;6.47;;;;;;;;;;5031717;28;20108;-56
2023/09/20 05:06:07;;;;;;;14.40;6.65;;;;;;;;;;5031885;28;20080;-57
2023/09/20 05:08:33;;;;;;;11.95;7.25;;;;;;;;;;5031599;28;20021;-55
2023/09/20 05:10:59;;;;;;;10.52;8.02;;;;;;;;;;5031530;28;20034;-56
2023/09/20 05:13:25;;;;;;;15.27;6.53;;;;;;;;;;5031412;28;20018;-56
2023/09/20 05:15:51;;;;;;;12.50;7.80;;;;;;;;;;5031488;28;20343;-56
2023/09/20 05:18:18;;;;;;;10.18;7.07;;;;;;;;;;5031317;28;20030;-55
2023/09/20 05:20:45;;;;;;;12.55;6.25;;;;;;;;;;5031283;28;20103;-58
2023/09/20 05:23:11;;;;;;;11.68;6.75;;;;;;;;;;5029740;28;20060;-56
2023/09/20 05:25:37;;;;;;;12.10;7.60;;;;;;;;;;5027773;28;20110;-57
2023/09/20 05:28:04;;;;;;;10.05;7.07;;;;;;;;;;5028409;28;20013;-57
2023/09/20 05:30:30;;;;;;;13.43;7.07;;;;;;;;;;5028283;28;20041;-57
2023/09/20 05:32:56;;;;;;;13.05;7.68;;;;;;;;;;5030556;28;20121;-56
2023/09/20 05:35:22;;;;;;;13.70;7.70;;;;;;;;;;5031350;28;20049;-56
2023/09/20 05:37:49;;;;;;;13.02;7.97;;;;;;;;;;5031387;28;20017;-57
2023/09/20 05:40:18;;;;;;;10.68;7.10;;;;;;;;;;5031139;28;20106;-57
2023/09/20 05:42:47;;;;;;;9.68;6.75;;;;;;;;;;5031046;28;20467;-57
2023/09/20 05:45:14;;;;;;;12.23;6.88;;;;;;;;;;5031166;28;20056;-56
2023/09/20 05:47:43;;;;;;;11.32;7.10;;;;;;;;;;5033034;28;20029;-57
2023/09/20 05:50:13;;;;;;;11.20;6.72;;;;;;;;;;5034837;28;20032;-57
2023/09/20 05:52:45;;;;;;;11.10;7.00;;;;;;;;;;5034905;28;20029;-60
2023/09/20 05:55:14;;;;;;;11.25;6.53;;;;;;;;;;5029787;28;20374;-60
2023/09/20 05:57:43;;;;;;;13.65;7.30;;;;;;;;;;5034746;28;20387;-60
2023/09/20 06:00:21;;;;;;;11.40;6.70;;;;;;;;;;5034783;28;20367;-64
2023/09/20 06:02:49;;;;;;;13.35;7.50;;;;;;;;;;5035057;28;20022;-60
2023/09/20 06:05:15;;;;;;;12.82;7.50;;;;;;;;;;5034753;28;20025;-59
2023/09/20 06:07:42;;;;;;;10.07;7.10;;;;;;;;;;5032799;28;20472;-60
2023/09/20 06:10:09;;;;;;;18.50;8.95;;;;;;;;;;5032466;28;20426;-60
2023/09/20 06:12:35;;;;;;;11.48;7.50;;;;;;;;;;5034514;28;20022;-60
2023/09/20 06:15:01;;;;;;;11.15;7.32;;;;;;;;;;5034355;28;20067;-60
2023/09/20 06:17:32;;;;;;;10.55;6.95;;;;;;;;;;5034730;28;20056;-60
2023/09/20 06:19:58;;;;;;;17.30;7.90;;;;;;;;;;5034358;28;20052;-60
2023/09/20 06:22:27;;;;;;;9.77;6.32;;;;;;;;;;5034312;28;20357;-59
2023/09/20 06:24:56;;;;;;;14.73;7.80;;;;;;;;;;5034719;28;20424;-60
2023/09/20 06:27:22;;;;;;;13.45;7.03;;;;;;;;;;5034376;28;20013;-60
2023/09/20 06:29:48;;;;;;;14.90;7.47;;;;;;;;;;5033893;28;20036;-60
2023/09/20 06:32:15;;;;;;;15.40;8.13;;;;;;;;;;5033277;28;20017;-59
2023/09/20 06:34:42;;;;;;;13.82;7.07;;;;;;;;;;5033924;28;20047;-59
2023/09/20 06:37:09;;;;;;;15.98;7.75;;;;;;;;;;5036024;28;20021;-59
2023/09/20 06:39:36;;;;;;;17.42;8.15;;;;;;;;;;5042763;28;20025;-59
2023/09/20 06:42:03;;;;;;;12.27;8.93;;;;;;;;;;5034227;28;20017;-59
2023/09/20 06:44:29;;;;;;;14.13;8.50;;;;;;;;;;5034048;28;20036;-59
2023/09/20 06:46:55;;;;;;;17.33;9.43;;;;;;;;;;5033773;28;20570;-59
2023/09/20 06:49:21;;;;;;;21.10;10.48;;;;;;;;;;5033859;28;20440;-57
2023/09/20 06:51:47;;;;;;;21.08;11.30;;;;;;;;;;5033947;28;20014;-55
2023/09/20 06:54:14;;;;;;;19.08;12.20;;;;;;;;;;5033819;28;20087;-57
2023/09/20 06:56:41;;;;;;;20.05;10.15;;;;;;;;;;5033796;28;20494;-57
2023/09/20 06:59:07;;;;;;;16.67;10.60;;;;;;;;;;5032600;28;20049;-56
2023/09/20 07:01:33;;;;;;;18.73;11.30;;;;;;;;;;5033577;28;20084;-62
2023/09/20 07:03:59;;;;;;;19.80;12.50;;;;;;;;;;5033716;28;20021;-63
2023/09/20 07:06:26;;;;;;;20.92;11.85;;;;;;;;;;5033567;28;20091;-65
2023/09/20 07:08:52;;;;;;;23.15;12.18;;;;;;;;;;5019774;28;20439;-63
2023/09/20 07:11:18;;;;;;;16.95;12.23;;;;;;;;;;5015564;28;20140;-62
2023/09/20 07:13:45;;;;;;;24.27;12.68;;;;;;;;;;5033290;28;20021;-62
2023/09/20 07:16:11;;;;;;;19.95;12.88;;;;;;;;;;5024224;28;20034;-60
2023/09/20 07:18:37;;;;;;;16.73;11.18;;;;;;;;;;5011890;28;20025;-59
2023/09/20 07:21:04;;;;;;;20.98;12.55;;;;;;;;;;5030220;28;20121;-59
2023/09/20 07:23:30;;;;;;;18.60;12.00;;;;;;;;;;5031550;28;20479;-58
2023/09/20 07:25:56;;;;;;;18.60;11.90;;;;;;;;;;5033046;28;20083;-60
2023/09/20 07:28:24;;;;;;;17.17;12.45;;;;;;;;;;5033064;28;20025;-60
2023/09/20 07:30:50;;;;;;;20.67;12.75;;;;;;;;;;5033094;28;20025;-57
2023/09/20 07:33:23;;;;;;;21.15;13.40;;;;;;;;;;5033124;28;20099;-60
2023/09/20 07:35:58;;;;;;;17.90;12.82;;;;;;;;;;5033029;28;20021;-60
2023/09/20 07:38:25;;;;;;;22.20;13.75;;;;;;;;;;5032868;28;20518;-61
2023/09/20 07:40:53;;;;;;;20.67;14.38;;;;;;;;;;5032987;28;20037;-60
2023/09/20 07:43:19;;;;;;;17.85;13.32;;;;;;;;;;5015445;28;20020;-61
2023/09/20 07:45:46;;;;;;;23.98;12.77;;;;;;;;;;5033195;28;20033;-61
2023/09/20 07:48:13;;;;;;;19.50;11.68;;;;;;;;;;5033133;28;20442;-61
2023/09/20 07:50:42;;;;;;;16.45;10.35;;;;;;;;;;5033756;28;20037;-60
2023/09/20 07:53:10;;;;;;;18.25;10.73;;;;;;;;;;5015779;28;20531;-61
2023/09/20 07:55:36;;;;;;;20.35;11.45;;;;;;;;;;5032969;28;20021;-60
2023/09/20 07:58:02;;;;;;;17.15;11.98;;;;;;;;;;5014610;28;20116;-58
2023/09/20 08:00:28;;;;;;;18.95;11.55;;;;;;;;;;5031445;28;20128;-60
2023/09/20 08:02:54;;;;;;;18.25;11.43;;;;;;;;;;5032419;28;20167;-60
2023/09/20 08:05:22;;;;;;;15.55;10.40;;;;;;;;;;5032714;28;20040;-59
2023/09/20 08:07:48;;;;;;;14.95;10.90;;;;;;;;;;5032230;28;20017;-59
2023/09/20 08:10:14;;;;;;;14.13;9.38;;;;;;;;;;5031967;28;20033;-61
2023/09/20 08:12:40;;;;;;;16.73;9.90;;;;;;;;;;5032307;28;20029;-59
2023/09/20 08:15:06;;;;;;;14.43;10.18;;;;;;;;;;5031919;28;20033;-58
2023/09/20 08:20:20;;;;;;;19.88;13.00;;;;;;;;;;5019295;28;20176;-53
2023/09/20 09:01:26;;;;;;;12.77;8.25;;;;;;;;;;5032143;28;20541;-60
2023/09/20 09:03:52;;;;;;;12.93;8.38;;;;;;;;;;5031946;28;20030;-60
2023/09/20 09:06:18;;;;;;;15.90;7.88;;;;;;;;;;5031863;28;20028;-59
2023/09/20 09:08:44;;;;;;;12.43;7.88;;;;;;;;;;5031921;28;20030;-56
2023/09/20 09:11:10;;;;;;;17.23;10.52;;;;;;;;;;5013850;28;20018;-60
2023/09/20 09:13:36;;;;;;;14.60;8.48;;;;;;;;;;5029133;28;20501;-60
2023/09/20 09:16:04;;;;;;;12.40;7.95;;;;;;;;;;5027911;28;20028;-58
2023/09/20 09:18:30;;;;;;;10.88;8.40;;;;;;;;;;5027872;28;20217;-59
2023/09/20 09:21:09;;;;;;;13.65;8.50;;;;;;;;;;5027985;28;20107;-59
2023/09/20 09:23:35;;;;;;;13.98;9.18;;;;;;;;;;5033438;28;20014;-59
2023/09/20 09:26:02;;;;;;;19.83;9.18;;;;;;;;;;5035086;28;20119;-62
2023/09/20 09:28:29;;;;;;;16.08;9.23;;;;;;;;;;5035960;28;20048;-61
2023/09/20 09:30:55;;;;;;;14.23;10.10;;;;;;;;;;5035284;28;20036;-61
2023/09/20 09:33:23;;;;;;;14.98;10.55;;;;;;;;;;5034249;28;20025;-56
2023/09/20 09:35:49;;;;;;;18.17;11.25;;;;;;;;;;5035458;28;20410;-56
2023/09/20 09:38:21;;;;;;;18.48;10.55;;;;;;;;;;5034962;28;20029;-59
2023/09/20 09:40:56;;;;;;;15.32;10.18;;;;;;;;;;5035218;28;20037;-57
2023/09/20 09:43:23;;;;;;;14.32;9.35;;;;;;;;;;5035293;28;20467;-58
2023/09/20 09:45:50;;;;;;;13.18;10.52;;;;;;;;;;5034851;28;20030;-58
2023/09/20 09:48:16;;;;;;;17.05;11.02;;;;;;;;;;5033958;28;20030;-60
2023/09/20 09:50:46;;;;;;;15.73;10.15;;;;;;;;;;5033467;28;20025;-61
2023/09/20 09:53:14;;;;;;;15.55;10.75;;;;;;;;;;5034976;28;20020;-62
2023/09/20 09:55:40;;;;;;;17.77;11.20;;;;;;;;;;5034960;28;20017;-60
2023/09/20 09:58:08;;;;;;;14.30;11.05;;;;;;;;;;5034627;28;20030;-62
2023/09/20 10:00:39;;;;;;;15.82;11.07;;;;;;;;;;5034797;28;20033;-61
2023/09/20 10:03:25;;;;;;;13.23;11.05;;;;;;;;;;5014870;28;20048;-59
2023/09/20 10:05:53;;;;;;;18.30;11.23;;;;;;;;;;5034514;28;20429;-56
2023/09/20 10:08:21;;;;;;;15.57;10.60;;;;;;;;;;5034607;28;20555;-58
2023/09/20 10:10:47;;;;;;;20.33;12.35;;;;;;;;;;5034697;28;20048;-59
2023/09/20 10:13:14;;;;;;;16.45;10.18;;;;;;;;;;5034564;28;20025;-60
2023/09/20 10:15:43;;;;;;;18.65;11.70;;;;;;;;;;5034438;28;20420;-60
2023/09/20 10:18:09;;;;;;;18.33;12.10;;;;;;;;;;5034476;28;20032;-56
2023/09/20 10:20:58;;;;;;;16.63;11.80;;;;;;;;;;5016673;28;20065;-57
2023/09/20 10:23:24;;;;;;;16.20;13.15;;;;;;;;;;5033978;28;20056;-58
2023/09/20 10:25:50;;;;;;;15.82;11.00;;;;;;;;;;5032854;28;20033;-58
2023/09/20 10:28:16;;;;;;;17.73;11.32;;;;;;;;;;5034218;28;20021;-59
2023/09/20 10:31:01;;;;;;;20.58;11.55;;;;;;;;;;5034915;28;20402;-54
2023/09/20 10:33:46;;;;;;;15.48;11.25;;;;;;;;;;5033750;28;20030;-59
2023/09/20 10:36:27;;;;;;;18.67;11.98;;;;;;;;;;5033095;28;20036;-59
2023/09/20 10:39:13;;;;;;;16.30;10.65;;;;;;;;;;5024290;28;20387;-60
2023/09/20 10:41:42;;;;;;;17.90;13.23;;;;;;;;;;5019855;28;20037;-60
2023/09/20 10:44:09;;;;;;;18.13;12.55;;;;;;;;;;5034161;28;20103;-67
2023/09/20 10:46:39;;;;;;;18.52;13.07;;;;;;;;;;5035229;28;20029;-59
2023/09/20 10:49:06;;;;;;;18.67;13.60;;;;;;;;;;5035125;28;20491;-60
2023/09/20 10:51:41;;;;;;;16.10;12.27;;;;;;;;;;5017573;28;20026;-59
2023/09/20 10:54:25;;;;;;;19.83;14.45;;;;;;;;;;5031022;28;20476;-60
2023/09/20 10:56:51;;;;;;;19.15;14.48;;;;;;;;;;5020555;28;20375;-60
2023/09/20 10:59:27;;;;;;;21.73;15.05;;;;;;;;;;5033768;28;20021;-60
2023/09/20 11:01:53;;;;;;;23.92;14.45;;;;;;;;;;5033945;28;20025;-59
2023/09/20 11:04:19;;;;;;;18.80;14.80;;;;;;;;;;5034028;28;20091;-59
2023/09/20 11:06:49;;;;;;;17.33;14.10;;;;;;;;;;5033809;28;20376;-59
2023/09/20 11:09:15;;;;;;;17.50;14.10;;;;;;;;;;5033529;28;20029;-59
2023/09/20 11:11:42;;;;;;;20.95;13.65;;;;;;;;;;5033597;28;20549;-59
2023/09/20 11:14:08;;;;;;;16.65;11.75;;;;;;;;;;5033400;28;20022;-59
2023/09/20 11:16:36;;;;;;;15.75;13.45;;;;;;;;;;5033456;28;20061;-59
2023/09/20 11:19:03;;;;;;;18.58;14.80;;;;;;;;;;5033446;28;20018;-59
2023/09/20 11:21:29;;;;;;;24.50;15.20;;;;;;;;;;5015383;28;20348;-59
2023/09/20 11:23:55;;;;;;;18.65;13.15;;;;;;;;;;5034041;28;20029;-59
2023/09/20 11:26:27;;;;;;;26.40;22.00;;;;;;;;;;5033248;28;20021;-60
2023/09/20 11:28:53;;;;;;;20.50;15.25;;;;;;;;;;5033092;28;20025;-60
2023/09/20 11:31:30;;;;;;;19.13;15.35;;;;;;;;;;5033376;28;20029;-60
2023/09/20 11:33:59;;;;;;;19.88;16.60;;;;;;;;;;5033499;28;20049;-60
2023/09/20 11:36:26;;;;;;;22.98;17.65;;;;;;;;;;5015192;28;20033;-60
2023/09/20 11:38:52;;;;;;;21.90;17.08;;;;;;;;;;5033693;28;20107;-60
2023/09/20 11:41:18;;;;;;;27.90;19.80;;;;;;;;;;5032802;28;20152;-60
2023/09/20 11:43:47;;;;;;;23.63;17.90;;;;;;;;;;5032881;28;20081;-60
2023/09/20 11:46:15;;;;;;;23.67;21.15;;;;;;;;;;5032159;28;20036;-59
2023/09/20 11:48:43;;;;;;;25.60;19.73;;;;;;;;;;5032573;28;20014;-60
2023/09/20 11:51:10;;;;;;;21.58;18.27;;;;;;;;;;5014968;28;20064;-60
2023/09/20 11:53:36;;;;;;;23.05;17.70;;;;;;;;;;5032908;28;20021;-60
2023/09/20 11:56:03;;;;;;;20.58;18.40;;;;;;;;;;5033083;28;20029;-59
2023/09/20 11:58:36;;;;;;;21.65;18.52;;;;;;;;;;5032485;28;20391;-59
2023/09/20 12:01:05;;;;;;;16.75;13.25;;;;;;;;;;5032675;28;20418;-60
2023/09/20 12:03:31;;;;;;;24.90;19.48;;;;;;;;;;5014829;28;20025;-59
2023/09/20 12:05:57;;;;;;;22.38;19.75;;;;;;;;;;5032878;28;20022;-61
2023/09/20 12:08:30;;;;;;;25.75;18.40;;;;;;;;;;5032372;28;20068;-59
2023/09/20 12:10:56;;;;;;;20.33;18.02;;;;;;;;;;5032448;28;20032;-60
2023/09/20 12:13:22;;;;;;;19.70;17.13;;;;;;;;;;5031905;28;20028;-60
2023/09/20 12:15:48;;;;;;;21.88;17.73;;;;;;;;;;5030370;28;20025;-60
2023/09/20 12:18:14;;;;;;;26.63;21.67;;;;;;;;;;5032825;28;20021;-59
2023/09/20 12:20:41;;;;;;;24.75;18.48;;;;;;;;;;5031817;28;20107;-59
2023/09/20 12:23:07;;;;;;;21.10;17.38;;;;;;;;;;5032295;28;20474;-59
2023/09/20 12:25:33;;;;;;;26.75;18.70;;;;;;;;;;5032202;28;20025;-59
2023/09/20 12:28:00;;;;;;;26.27;21.67;;;;;;;;;;5031786;28;20014;-59
2023/09/20 12:30:27;;;;;;;19.20;17.20;;;;;;;;;;5031859;28;20055;-59
2023/09/20 12:32:53;;;;;;;21.30;18.45;;;;;;;;;;5032251;28;20367;-58
2023/09/20 12:35:19;;;;;;;19.13;15.85;;;;;;;;;;5031065;28;20088;-60
2023/09/20 12:37:45;;;;;;;28.02;22.40;;;;;;;;;;5032014;28;20056;-61
2023/09/20 12:40:11;;;;;;;23.50;20.30;;;;;;;;;;5031523;28;20084;-59
2023/09/20 12:42:38;;;;;;;23.45;17.10;;;;;;;;;;5031148;28;20048;-68
2023/09/20 12:45:07;;;;;;;21.13;17.55;;;;;;;;;;5013172;28;20407;-67
2023/09/20 12:47:39;;;;;;;22.27;16.75;;;;;;;;;;5029913;28;20056;-66
2023/09/20 12:50:07;;;;;;;22.33;18.60;;;;;;;;;;5023058;28;20391;-67
2023/09/20 12:52:33;;;;;;;20.88;15.00;;;;;;;;;;5013701;28;20056;-64
2023/09/20 12:54:59;;;;;;;24.30;16.55;;;;;;;;;;5029397;28;20067;-62
2023/09/20 12:57:28;;;;;;;22.10;18.38;;;;;;;;;;5029567;28;20129;-73
2023/09/20 12:59:56;;;;;;;20.85;16.73;;;;;;;;;;5030322;28;20503;-65
2023/09/20 13:02:27;;;;;;;20.13;17.92;;;;;;;;;;5036179;28;20401;-63
2023/09/20 13:04:55;;;;;;;28.83;19.00;;;;;;;;;;5026928;28;20029;-63
2023/09/20 13:07:21;;;;;;;24.30;17.10;;;;;;;;;;5030432;28;20438;-58
2023/09/20 13:09:56;;;;;;;24.10;18.75;;;;;;;;;;5031730;28;20026;-62
2023/09/20 13:12:22;;;;;;;23.65;17.98;;;;;;;;;;5031664;28;20055;-61
2023/09/20 13:14:48;;;;;;;27.23;19.08;;;;;;;;;;5023630;28;20033;-61
2023/09/20 13:17:15;;;;;;;24.83;20.00;;;;;;;;;;5030451;28;20029;-60
2023/09/20 13:19:41;;;;;;;24.80;18.52;;;;;;;;;;5030746;28;20044;-63
2023/09/20 13:22:09;;;;;;;27.98;20.17;;;;;;;;;;5022401;28;20038;-59
2023/09/20 13:24:39;;;;;;;28.25;21.05;;;;;;;;;;5031076;28;20024;-57
2023/09/20 13:27:05;;;;;;;24.55;20.00;;;;;;;;;;5031724;28;20056;-55
2023/09/20 13:29:31;;;;;;;25.23;19.90;;;;;;;;;;5030615;28;20030;-59
2023/09/20 13:31:57;;;;;;;27.52;21.13;;;;;;;;;;5030841;28;20095;-49
2023/09/20 13:34:25;;;;;;;31.13;26.40;;;;;;;;;;5029412;28;20029;-51
2023/09/20 13:36:51;;;;;;;25.33;22.73;;;;;;;;;;5030921;28;20053;-61
2023/09/20 13:39:17;;;;;;;28.20;22.73;;;;;;;;;;5031126;28;20026;-61
2023/09/20 13:41:44;;;;;;;27.17;24.55;;;;;;;;;;5031278;28;20029;-61
2023/09/20 13:44:10;;;;;;;23.63;20.08;;;;;;;;;;5030355;28;20033;-58
2023/09/20 13:46:39;;;;;;;27.48;23.48;;;;;;;;;;5029622;28;20033;-59
2023/09/20 13:49:09;;;;;;;27.63;21.65;;;;;;;;;;5030810;28;20018;-64
2023/09/20 13:51:38;;;;;;;34.05;24.98;;;;;;;;;;5013385;28;20038;-69
2023/09/20 13:54:06;;;;;;;27.48;24.38;;;;;;;;;;5030699;28;20017;-63
2023/09/20 13:56:33;;;;;;;28.45;23.90;;;;;;;;;;5030406;28;20028;-66
2023/09/20 13:59:00;;;;;;;28.15;23.02;;;;;;;;;;5031497;28;20104;-67
2023/09/20 14:01:27;;;;;;;26.50;20.52;;;;;;;;;;5030601;28;20479;-62
2023/09/20 14:03:54;;;;;;;28.02;21.08;;;;;;;;;;5030613;28;20013;-66
2023/09/20 14:06:21;;;;;;;30.48;23.83;;;;;;;;;;5029945;28;20094;-62
2023/09/20 14:08:47;;;;;;;24.98;21.83;;;;;;;;;;5031560;28;20044;-60
2023/09/20 14:11:14;;;;;;;26.58;21.58;;;;;;;;;;5033336;28;20027;-63
2023/09/20 14:13:40;;;;;;;29.15;23.17;;;;;;;;;;5029532;28;20020;-66
2023/09/20 14:16:06;;;;;;;27.08;21.38;;;;;;;;;;5034751;28;20037;-70
2023/09/20 14:18:32;;;;;;;22.05;18.17;;;;;;;;;;5034291;28;20048;-67
2023/09/20 14:21:02;;;;;;;27.63;22.00;;;;;;;;;;5034349;28;20071;-69
2023/09/20 14:23:29;;;;;;;27.73;21.65;;;;;;;;;;5033748;28;20082;-64
2023/09/20 14:25:55;;;;;;;22.92;20.27;;;;;;;;;;5050354;28;20076;-67
2023/09/20 14:28:22;;;;;;;22.73;19.75;;;;;;;;;;5033734;28;20025;-59
2023/09/20 14:30:48;;;;;;;26.63;20.02;;;;;;;;;;5016547;28;20044;-60
2023/09/20 14:33:14;;;;;;;28.48;21.00;;;;;;;;;;5034125;28;20468;-60
2023/09/20 14:35:41;;;;;;;27.20;20.45;;;;;;;;;;5032035;28;20147;-66
2023/09/20 14:38:07;;;;;;;22.70;20.25;;;;;;;;;;5032828;28;20028;-64
2023/09/20 14:40:33;;;;;;;21.67;19.40;;;;;;;;;;5034766;28;20033;-67
2023/09/20 14:42:59;;;;;;;27.88;19.98;;;;;;;;;;5034605;28;20018;-63
2023/09/20 14:45:29;;;;;;;22.98;19.77;;;;;;;;;;5034375;28;20049;-63
2023/09/20 14:47:56;;;;;;;24.42;21.83;;;;;;;;;;5033803;28;20048;-64
2023/09/20 14:50:23;;;;;;;25.75;21.38;;;;;;;;;;5033761;28;20021;-59
2023/09/20 14:52:49;;;;;;;24.05;20.45;;;;;;;;;;5033999;28;20029;-58
2023/09/20 14:55:19;;;;;;;26.00;21.30;;;;;;;;;;5032545;28;20033;-58
2023/09/20 14:57:46;;;;;;;24.77;20.05;;;;;;;;;;5025963;28;20391;-61
2023/09/20 15:00:18;;;;;;;28.00;21.38;;;;;;;;;;5032774;28;20037;-61
2023/09/20 15:02:45;;;;;;;27.38;21.80;;;;;;;;;;5015976;28;20052;-61
2023/09/20 15:05:13;;;;;;;24.42;21.67;;;;;;;;;;5032475;28;20079;-61
2023/09/20 15:07:39;;;;;;;25.70;17.10;;;;;;;;;;5031515;28;20029;-67
2023/09/20 15:10:10;;;;;;;21.38;17.20;;;;;;;;;;5035492;28;20028;-68
2023/09/20 15:12:36;;;;;;;24.05;16.67;;;;;;;;;;5027006;28;20161;-66
2023/09/20 15:15:02;;;;;;;25.95;16.27;;;;;;;;;;5027221;28;20029;-66
2023/09/20 15:17:28;;;;;;;21.10;17.65;;;;;;;;;;5032699;28;20018;-65
2023/09/20 15:19:54;;;;;;;20.05;17.88;;;;;;;;;;5031761;28;20053;-71
2023/09/20 15:22:23;;;;;;;24.17;19.88;;;;;;;;;;5032994;28;20032;-67